createdAt,value
2018-09-11T00:00:49.875Z,99.90
2018-09-11T00:03:20.317Z,99.90
2018-09-11T00:05:51.266Z,99.90
2018-09-11T00:08:22.426Z,99.90
2018-09-11T00:10:54.466Z,99.90
2018-09-11T00:13:25.595Z,99.90
2018-09-11T00:15:55.937Z,99.90
2018-09-11T00:18:27.087Z,99.90
2018-09-11T00:20:57.645Z,99.90
2018-09-11T00:23:28.175Z,99.90
2018-09-11T00:25:59.255Z,99.90
2018-09-11T00:28:29.075Z,99.90
2018-09-11T00:31:00.022Z,99.90
2018-09-11T00:33:31.715Z,99.90
2018-09-11T00:36:01.194Z,99.90
2018-09-11T00:38:32.156Z,99.90
2018-09-11T00:41:03.109Z,99.90
2018-09-11T00:43:34.389Z,99.90
2018-09-11T00:46:04.702Z,99.90
2018-09-11T00:48:36.124Z,99.90
2018-09-11T00:51:07.852Z,99.90
2018-09-11T00:53:38.344Z,99.90
2018-09-11T00:56:09.434Z,99.90
2018-09-11T00:58:40.414Z,99.90
2018-09-11T01:01:10.644Z,99.90
2018-09-11T01:03:40.895Z,99.90
2018-09-11T01:06:12.575Z,99.90
2018-09-11T01:08:43.542Z,99.90
2018-09-11T01:11:14.147Z,99.90
2018-09-11T01:13:44.868Z,99.90
2018-09-11T01:16:15.043Z,99.90
2018-09-11T01:18:45.674Z,99.90
2018-09-11T01:21:16.253Z,99.90
2018-09-11T01:23:47.104Z,99.90
2018-09-11T01:26:18.105Z,99.90
2018-09-11T01:28:49.048Z,99.90
2018-09-11T01:31:20.263Z,99.90
2018-09-11T01:33:51.156Z,99.90
2018-09-11T01:36:22.621Z,99.90
2018-09-11T01:38:53.798Z,99.90
2018-09-11T01:41:25.498Z,99.90
2018-09-11T01:43:56.263Z,99.90
2018-09-11T01:46:27.272Z,99.90
2018-09-11T01:48:58.157Z,99.90
2018-09-11T01:51:28.306Z,99.90
2018-09-11T01:54:00.069Z,99.90
2018-09-11T01:56:31.060Z,99.90
2018-09-11T01:59:01.658Z,99.90
2018-09-11T02:01:32.330Z,99.90
2018-09-11T02:04:02.552Z,99.90
2018-09-11T02:06:33.005Z,99.90
2018-09-11T02:09:03.779Z,99.90
2018-09-11T02:11:35.297Z,99.90
2018-09-11T02:14:06.556Z,99.90
2018-09-11T02:16:36.833Z,99.90
2018-09-11T02:19:09.267Z,99.90
2018-09-11T02:21:39.071Z,99.90
2018-09-11T02:24:09.526Z,99.90
2018-09-11T02:26:39.911Z,99.90
2018-09-11T02:29:10.877Z,99.90
2018-09-11T02:31:41.553Z,99.90
2018-09-11T02:34:12.644Z,99.90
2018-09-11T02:36:43.411Z,99.90
2018-09-11T02:39:14.370Z,99.90
2018-09-11T02:41:44.589Z,99.90
2018-09-11T02:44:14.975Z,99.90
2018-09-11T02:46:45.154Z,99.90
2018-09-11T02:49:15.875Z,99.90
2018-09-11T02:51:45.386Z,99.90
2018-09-11T02:54:14.731Z,99.90
2018-09-11T02:56:45.197Z,99.90
2018-09-11T02:59:15.336Z,99.90
2018-09-11T03:01:46.035Z,99.90
2018-09-11T03:04:15.489Z,99.90
2018-09-11T03:06:46.635Z,99.90
2018-09-11T03:09:17.332Z,99.90
2018-09-11T03:11:47.744Z,99.90
2018-09-11T03:14:18.163Z,99.90
2018-09-11T03:16:48.628Z,99.90
2018-09-11T03:19:18.855Z,99.90
2018-09-11T03:21:48.609Z,99.90
2018-09-11T03:24:19.032Z,99.90
2018-09-11T03:26:48.520Z,99.90
2018-09-11T03:29:18.821Z,99.90
2018-09-11T03:31:49.769Z,99.90
2018-09-11T03:34:20.513Z,99.90
2018-09-11T03:36:52.106Z,99.90
2018-09-11T03:39:21.699Z,99.90
2018-09-11T03:41:52.181Z,99.90
2018-09-11T03:44:21.680Z,99.90
2018-09-11T03:46:52.047Z,99.90
2018-09-11T03:49:22.622Z,99.90
2018-09-11T03:51:54.672Z,99.90
2018-09-11T03:54:25.462Z,99.90
2018-09-11T03:56:55.794Z,99.90
2018-09-11T03:59:28.327Z,99.90
2018-09-11T04:01:58.059Z,99.90
2018-09-11T04:04:28.577Z,99.90
2018-09-11T04:06:58.836Z,99.90
2018-09-11T04:09:28.851Z,99.90
2018-09-11T04:11:59.545Z,99.90
2018-09-11T04:14:29.612Z,99.90
2018-09-11T04:16:59.309Z,99.90
2018-09-11T04:19:30.213Z,99.90
2018-09-11T04:22:00.898Z,99.90
2018-09-11T04:24:31.968Z,99.90
2018-09-11T04:27:02.706Z,99.90
2018-09-11T04:29:33.972Z,99.90
2018-09-11T04:32:04.305Z,99.90
2018-09-11T04:34:34.434Z,99.90
2018-09-11T04:37:04.305Z,99.90
2018-09-11T04:39:34.372Z,99.90
2018-09-11T04:42:06.803Z,99.90
2018-09-11T04:44:37.684Z,99.90
2018-09-11T04:47:08.847Z,99.90
2018-09-11T04:49:39.425Z,99.90
2018-09-11T04:52:10.357Z,99.90
2018-09-11T04:54:41.195Z,99.90
2018-09-11T04:57:12.082Z,99.90
2018-09-11T04:59:44.066Z,99.90
2018-09-11T05:02:14.130Z,99.90
2018-09-11T05:04:43.978Z,99.90
2018-09-11T05:07:13.849Z,99.90
2018-09-11T05:09:43.643Z,99.90
2018-09-11T05:12:14.304Z,99.90
2018-09-11T05:14:45.821Z,99.90
2018-09-11T05:17:16.418Z,99.90
2018-09-11T05:19:46.173Z,99.90
2018-09-11T05:22:17.028Z,99.90
2018-09-11T05:24:47.042Z,99.90
2018-09-11T05:27:16.874Z,99.90
2018-09-11T05:29:47.598Z,99.90
2018-09-11T05:32:18.047Z,99.90
2018-09-11T05:34:48.310Z,99.90
2018-09-11T05:37:18.987Z,99.90
2018-09-11T05:39:49.097Z,99.90
2018-09-11T05:42:19.793Z,99.90
2018-09-11T05:44:49.729Z,99.90
2018-09-11T05:47:19.700Z,99.90
2018-09-11T05:49:49.437Z,99.90
2018-09-11T05:52:19.291Z,99.90
2018-09-11T05:54:49.011Z,99.90
2018-09-11T05:57:19.028Z,99.90
2018-09-11T05:59:48.777Z,99.90
2018-09-11T06:02:18.732Z,99.90
2018-09-11T06:04:48.584Z,99.90
2018-09-11T06:07:18.292Z,99.90
2018-09-11T06:09:47.360Z,99.90
2018-09-11T06:12:23.646Z,99.90
2018-09-11T06:14:53.516Z,99.90
2018-09-11T06:17:22.458Z,99.90
2018-09-11T06:19:51.747Z,99.90
2018-09-11T06:22:21.573Z,99.90
2018-09-11T06:24:52.241Z,99.90
2018-09-11T06:27:22.172Z,99.90
2018-09-11T06:29:53.122Z,99.90
2018-09-11T06:32:22.971Z,99.90
2018-09-11T06:34:53.566Z,99.90
2018-09-11T06:37:23.733Z,99.90
2018-09-11T06:39:53.546Z,99.90
2018-09-11T06:42:22.938Z,99.90
2018-09-11T06:44:52.239Z,99.90
2018-09-11T06:47:21.114Z,99.90
2018-09-11T06:49:50.589Z,99.90
2018-09-11T06:52:19.417Z,99.90
2018-09-11T06:54:48.668Z,99.90
2018-09-11T06:57:17.810Z,99.90
2018-09-11T06:59:46.619Z,99.90
2018-09-11T07:02:15.335Z,99.90
2018-09-11T07:04:44.664Z,99.90
2018-09-11T07:07:13.423Z,99.90
2018-09-11T07:09:42.199Z,99.90
2018-09-11T07:12:11.102Z,99.90
2018-09-11T07:14:40.316Z,99.90
2018-09-11T07:17:09.533Z,99.90
2018-09-11T07:19:38.258Z,99.90
2018-09-11T07:22:07.246Z,99.90
2018-09-11T07:24:36.127Z,85.00
2018-09-11T07:27:05.464Z,61.30
2018-09-11T07:29:35.019Z,62.30
2018-09-11T07:32:04.241Z,51.10
2018-09-11T07:34:33.886Z,53.50
2018-09-11T07:37:04.676Z,46.90
2018-09-11T07:39:34.657Z,45.30
2018-09-11T07:42:04.423Z,47.50
2018-09-11T07:44:33.131Z,54.10
2018-09-11T07:47:02.204Z,60.30
2018-09-11T07:49:32.015Z,60.10
2018-09-11T07:52:01.834Z,65.00
2018-09-11T07:54:30.601Z,55.70
2018-09-11T07:56:59.452Z,53.00
2018-09-11T07:59:28.680Z,54.40
2018-09-11T08:01:57.850Z,50.50
2018-09-11T08:04:27.019Z,47.70
2018-09-11T08:06:56.379Z,45.90
2018-09-11T08:09:29.714Z,44.10
2018-09-11T08:11:59.678Z,48.80
2018-09-11T08:14:29.750Z,46.70
2018-09-11T08:16:58.820Z,46.80
2018-09-11T08:19:27.600Z,48.80
2018-09-11T08:21:56.739Z,49.60
2018-09-11T08:24:25.422Z,47.90
2018-09-11T08:26:54.128Z,48.60
2018-09-11T08:29:23.960Z,46.80
2018-09-11T08:31:53.207Z,44.80
2018-09-11T08:34:22.142Z,46.80
2018-09-11T08:36:50.833Z,48.40
2018-09-11T08:39:20.495Z,45.60
2018-09-11T08:41:49.981Z,42.30
2018-09-11T08:44:20.452Z,39.60
2018-09-11T08:46:50.302Z,39.60
2018-09-11T08:49:22.083Z,38.60
2018-09-11T08:51:51.902Z,39.40
2018-09-11T08:54:21.264Z,38.50
2018-09-11T08:56:51.571Z,39.80
2018-09-11T08:59:21.407Z,35.30
2018-09-11T09:01:51.352Z,35.50
2018-09-11T09:04:21.233Z,31.00
2018-09-11T09:06:51.099Z,35.10
2018-09-11T09:09:20.897Z,33.50
2018-09-11T09:11:50.912Z,33.60
2018-09-11T09:14:20.566Z,33.50
2018-09-11T09:16:50.368Z,35.90
2018-09-11T09:19:21.202Z,39.20
2018-09-11T09:21:51.080Z,33.20
2018-09-11T09:24:20.885Z,35.10
2018-09-11T09:26:50.684Z,32.60
2018-09-11T09:29:21.446Z,31.10
2018-09-11T09:31:51.388Z,32.80
2018-09-11T09:34:21.338Z,33.50
2018-09-11T09:36:51.200Z,32.90
2018-09-11T09:39:21.036Z,35.80
2018-09-11T09:41:50.872Z,36.30
2018-09-11T09:44:21.242Z,35.40
2018-09-11T09:46:51.563Z,35.20
2018-09-11T09:49:21.398Z,34.10
2018-09-11T09:51:51.230Z,37.90
2018-09-11T09:54:21.102Z,37.60
2018-09-11T09:56:51.936Z,36.90
2018-09-11T09:59:22.710Z,36.90
2018-09-11T10:01:57.589Z,35.60
2018-09-11T10:04:27.468Z,38.10
2018-09-11T10:06:58.506Z,37.90
2018-09-11T10:09:29.274Z,37.60
2018-09-11T10:11:59.152Z,38.40
2018-09-11T10:14:28.882Z,40.50
2018-09-11T10:16:58.734Z,39.50
2018-09-11T10:19:29.378Z,36.80
2018-09-11T10:21:59.434Z,39.10
2018-09-11T10:24:29.850Z,39.00
2018-09-11T10:27:00.149Z,39.80
2018-09-11T10:29:38.051Z,39.50
2018-09-11T10:32:07.923Z,39.50
2018-09-11T10:34:37.805Z,38.10
2018-09-11T10:37:07.724Z,36.30
2018-09-11T10:39:37.575Z,33.90
2018-09-11T10:42:08.328Z,34.00
2018-09-11T10:44:39.020Z,31.90
2018-09-11T10:47:10.136Z,32.70
2018-09-11T10:49:40.024Z,33.50
2018-09-11T10:52:09.895Z,30.40
2018-09-11T10:54:40.637Z,33.70
2018-09-11T10:57:12.468Z,31.00
2018-09-11T10:59:43.073Z,31.90
2018-09-11T11:02:12.907Z,31.60
2018-09-11T11:04:42.801Z,31.90
2018-09-11T11:07:12.341Z,31.10
2018-09-11T11:09:41.844Z,29.20
2018-09-11T11:12:12.606Z,30.00
2018-09-11T11:14:43.259Z,31.30
2018-09-11T11:17:17.347Z,28.10
2018-09-11T11:19:48.296Z,28.50
2018-09-11T11:22:18.113Z,27.70
2018-09-11T11:24:48.968Z,32.20
2018-09-11T11:27:19.641Z,32.10
2018-09-11T11:29:50.412Z,33.50
2018-09-11T11:32:20.417Z,30.30
2018-09-11T11:34:50.399Z,31.50
2018-09-11T11:37:19.590Z,31.10
2018-09-11T11:39:49.032Z,29.20
2018-09-11T11:42:18.999Z,29.10
2018-09-11T11:44:48.768Z,29.10
2018-09-11T11:47:20.625Z,28.90
2018-09-11T11:49:51.288Z,30.90
2018-09-11T11:52:21.295Z,29.00
2018-09-11T11:54:50.394Z,33.10
2018-09-11T11:57:19.456Z,31.20
2018-09-11T11:59:48.236Z,31.70
2018-09-11T12:02:17.689Z,29.00
2018-09-11T12:04:47.519Z,28.90
2018-09-11T12:07:16.749Z,27.30
2018-09-11T12:09:45.866Z,29.10
2018-09-11T12:12:15.726Z,31.80
2018-09-11T12:14:46.648Z,30.00
2018-09-11T12:17:16.683Z,34.40
2018-09-11T12:19:46.610Z,32.40
2018-09-11T12:22:15.646Z,30.90
2018-09-11T12:24:44.497Z,29.90
2018-09-11T12:27:14.886Z,28.80
2018-09-11T12:29:45.006Z,28.20
2018-09-11T12:32:14.843Z,30.30
2018-09-11T12:34:44.672Z,29.90
2018-09-11T12:37:14.500Z,32.60
2018-09-11T12:39:46.207Z,32.90
2018-09-11T12:42:16.279Z,32.30
2018-09-11T12:44:46.077Z,33.30
2018-09-11T12:47:16.117Z,29.30
2018-09-11T12:49:46.766Z,30.60
2018-09-11T12:52:15.944Z,30.40
2018-09-11T12:54:45.352Z,28.40
2018-09-11T12:57:17.045Z,33.20
2018-09-11T12:59:47.759Z,36.00
2018-09-11T13:02:18.714Z,33.50
2018-09-11T13:04:49.793Z,35.40
2018-09-11T13:07:20.547Z,33.30
2018-09-11T13:09:52.337Z,38.30
2018-09-11T13:12:22.498Z,39.30
2018-09-11T13:14:52.353Z,34.10
2018-09-11T13:17:24.929Z,33.40
2018-09-11T13:19:57.803Z,34.50
2018-09-11T13:22:27.904Z,35.10
2018-09-11T13:24:57.745Z,32.80
2018-09-11T13:27:27.564Z,35.80
2018-09-11T13:29:58.517Z,33.30
2018-09-11T13:32:29.005Z,31.00
2018-09-11T13:34:59.872Z,33.80
2018-09-11T13:37:31.045Z,33.10
2018-09-11T13:40:00.867Z,35.60
2018-09-11T13:42:31.420Z,36.50
2018-09-11T13:45:01.555Z,39.30
2018-09-11T13:47:32.366Z,43.10
2018-09-11T13:50:02.273Z,38.30
2018-09-11T13:52:32.108Z,36.10
2018-09-11T13:55:04.020Z,37.70
2018-09-11T13:57:40.792Z,37.90
2018-09-11T14:00:12.764Z,44.40
2018-09-11T14:02:42.877Z,40.70
2018-09-11T14:05:14.293Z,41.70
2018-09-11T14:07:44.352Z,43.00
2018-09-11T14:10:14.161Z,37.10
2018-09-11T14:12:45.786Z,36.30
2018-09-11T14:15:16.895Z,41.20
2018-09-11T14:17:47.679Z,45.70
2018-09-11T14:20:20.642Z,41.30
2018-09-11T14:22:50.449Z,40.30
2018-09-11T14:25:20.300Z,46.60
2018-09-11T14:27:50.138Z,47.80
2018-09-11T14:30:21.373Z,40.60
2018-09-11T14:32:51.855Z,46.20
2018-09-11T14:35:21.711Z,48.30
2018-09-11T14:37:51.594Z,47.40
2018-09-11T14:40:21.374Z,47.00
2018-09-11T14:42:51.231Z,47.10
2018-09-11T14:45:21.088Z,46.10
2018-09-11T14:47:52.647Z,44.60
2018-09-11T14:50:23.484Z,43.80
2018-09-11T14:52:54.335Z,40.70
2018-09-11T14:55:24.398Z,46.80
2018-09-11T14:57:54.208Z,48.30
2018-09-11T15:00:25.910Z,48.40
2018-09-11T15:02:56.749Z,49.40
2018-09-11T15:05:27.601Z,49.20
2018-09-11T15:07:57.779Z,52.80
2018-09-11T15:10:28.527Z,58.10
2018-09-11T15:12:58.431Z,69.10
2018-09-11T15:15:28.275Z,73.90
2018-09-11T15:17:59.905Z,83.20
2018-09-11T15:20:29.874Z,84.30
2018-09-11T15:23:00.639Z,91.80
2018-09-11T15:25:31.425Z,76.40
2018-09-11T15:28:01.550Z,87.70
2018-09-11T15:30:31.389Z,74.70
2018-09-11T15:33:01.240Z,93.60
2018-09-11T15:35:31.067Z,89.70
2018-09-11T15:38:05.691Z,97.90
2018-09-11T15:40:35.869Z,78.00
2018-09-11T15:43:05.670Z,81.30
2018-09-11T15:45:35.543Z,79.50
2018-09-11T15:48:05.419Z,71.60
2018-09-11T15:50:35.234Z,81.60
2018-09-11T15:53:04.977Z,86.80
2018-09-11T15:55:34.928Z,92.80
2018-09-11T15:58:05.763Z,97.10
2018-09-11T16:00:35.605Z,99.90
2018-09-11T16:03:06.004Z,99.90
2018-09-11T16:05:36.229Z,99.90
2018-09-11T16:08:06.169Z,99.90
2018-09-11T16:10:35.365Z,99.90
2018-09-11T16:13:04.844Z,99.90
2018-09-11T16:15:34.683Z,99.90
2018-09-11T16:18:05.207Z,99.90
2018-09-11T16:20:35.420Z,99.90
2018-09-11T16:23:05.235Z,99.90
2018-09-11T16:25:35.069Z,99.90
2018-09-11T16:28:04.939Z,99.90
2018-09-11T16:30:35.372Z,99.90
2018-09-11T16:33:05.636Z,99.90
2018-09-11T16:38:10.315Z,99.90
2018-09-11T16:40:40.226Z,99.90
2018-09-11T16:43:11.060Z,99.90
2018-09-11T16:45:40.644Z,99.90
2018-09-11T16:48:10.794Z,99.90
2018-09-11T16:50:40.705Z,99.90
2018-09-11T16:53:11.468Z,99.90
2018-09-11T16:55:41.842Z,99.90
2018-09-11T16:58:12.797Z,99.90
2018-09-11T17:00:42.969Z,99.90
2018-09-11T17:03:12.133Z,99.90
2018-09-11T17:05:41.249Z,99.90
2018-09-11T17:08:12.262Z,99.90
2018-09-11T17:10:46.231Z,99.90
2018-09-11T17:13:17.302Z,99.90
2018-09-11T17:15:47.311Z,99.90
2018-09-11T17:18:18.566Z,99.90
2018-09-11T17:20:48.727Z,99.90
2018-09-11T17:23:19.379Z,99.90
2018-09-11T17:25:50.230Z,99.90
2018-09-11T17:28:21.459Z,99.90
2018-09-11T17:30:56.313Z,99.90
2018-09-11T17:37:17.082Z,99.90
2018-09-11T17:40:40.488Z,99.90
2018-09-11T17:43:11.021Z,99.90
2018-09-11T17:45:41.175Z,99.90
2018-09-11T17:48:11.894Z,99.90
2018-09-11T17:50:43.769Z,99.90
2018-09-11T17:53:13.719Z,99.90
2018-09-11T17:55:44.564Z,99.90
2018-09-11T17:58:14.428Z,99.90
2018-09-11T18:00:44.200Z,99.90
2018-09-11T18:03:14.128Z,99.90
2018-09-11T18:05:43.918Z,99.90
2018-09-11T18:08:14.889Z,99.90
2018-09-11T18:10:45.851Z,99.90
2018-09-11T18:13:16.960Z,99.90
2018-09-11T18:15:48.177Z,99.90
2018-09-11T18:18:19.134Z,99.90
2018-09-11T18:20:49.870Z,99.90
2018-09-11T18:23:20.841Z,99.90
2018-09-11T18:25:51.795Z,99.90
2018-09-11T18:28:21.525Z,99.90
2018-09-11T18:30:51.373Z,99.90
2018-09-11T18:33:21.254Z,99.90
2018-09-11T18:35:51.765Z,99.90
2018-09-11T18:38:22.892Z,99.90
2018-09-11T18:40:52.767Z,99.90
2018-09-11T18:43:22.817Z,99.90
2018-09-11T18:45:52.398Z,99.90
2018-09-11T18:48:22.276Z,99.90
2018-09-11T18:51:03.258Z,99.90
2018-09-11T18:53:33.277Z,99.90
2018-09-11T18:56:03.936Z,99.90
2018-09-11T18:58:33.797Z,99.90
2018-09-11T19:01:04.596Z,99.90
2018-09-11T19:03:34.552Z,99.90
2018-09-11T19:06:04.317Z,99.90
2018-09-11T19:08:34.145Z,99.90
2018-09-11T19:11:04.878Z,99.90
2018-09-11T19:13:34.848Z,99.90
2018-09-11T19:16:04.720Z,99.90
2018-09-11T19:18:35.253Z,99.90
2018-09-11T19:21:05.388Z,99.90
2018-09-11T19:23:35.376Z,99.90
2018-09-11T19:26:05.824Z,99.90
2018-09-11T19:28:36.871Z,99.90
2018-09-11T19:31:07.764Z,99.90
2018-09-11T19:33:37.614Z,99.90
2018-09-11T19:36:08.429Z,99.90
2018-09-11T19:38:38.312Z,99.90
2018-09-11T19:41:09.147Z,99.90
2018-09-11T19:43:39.600Z,99.90
2018-09-11T19:46:09.813Z,99.90
2018-09-11T19:48:40.669Z,99.90
2018-09-11T19:51:10.375Z,99.90
2018-09-11T19:53:40.342Z,99.90
2018-09-11T19:56:11.203Z,99.90
2018-09-11T19:58:41.824Z,99.90
2018-09-11T20:01:13.307Z,99.90
2018-09-11T20:03:43.459Z,99.90
2018-09-11T20:06:13.628Z,99.90
2018-09-11T20:08:43.316Z,99.90
2018-09-11T20:11:14.305Z,99.90
2018-09-11T20:13:44.108Z,99.90
2018-09-11T20:16:13.965Z,99.90
2018-09-11T20:18:44.775Z,99.90
2018-09-11T20:21:15.523Z,99.90
2018-09-11T20:23:45.490Z,99.90
2018-09-11T20:26:15.361Z,99.90
2018-09-11T20:28:45.187Z,99.90
2018-09-11T20:31:15.684Z,99.90
2018-09-11T20:33:45.873Z,99.90
2018-09-11T20:36:16.921Z,99.90
2018-09-11T20:38:46.511Z,99.90
2018-09-11T20:41:17.172Z,99.90
2018-09-11T20:43:47.121Z,99.90
2018-09-11T20:46:17.054Z,99.90
2018-09-11T20:48:46.903Z,99.90
2018-09-11T20:51:16.742Z,99.90
2018-09-11T20:53:46.594Z,99.90
2018-09-11T20:56:16.415Z,99.90
2018-09-11T20:58:47.280Z,99.90
2018-09-11T21:01:17.089Z,99.90
2018-09-11T21:03:46.929Z,99.90
2018-09-11T21:06:16.773Z,99.90
2018-09-11T21:08:47.410Z,99.90
2018-09-11T21:11:18.620Z,99.90
2018-09-11T21:13:49.134Z,99.90
2018-09-11T21:16:20.181Z,99.90
2018-09-11T21:18:58.153Z,99.90
2018-09-11T21:21:28.621Z,99.90
2018-09-11T21:23:59.740Z,99.90
2018-09-11T21:26:30.594Z,99.90
2018-09-11T21:29:02.571Z,99.90
2018-09-11T21:31:32.528Z,99.90
2018-09-11T21:34:03.193Z,99.90
2018-09-11T21:36:33.836Z,99.90
2018-09-11T21:39:05.073Z,99.90
2018-09-11T21:41:36.859Z,99.90
2018-09-11T21:44:06.667Z,99.90
2018-09-11T21:46:41.267Z,99.90
2018-09-11T21:49:11.404Z,99.90
2018-09-11T21:51:41.263Z,99.90
2018-09-11T21:54:11.216Z,99.90
2018-09-11T21:56:41.814Z,99.90
2018-09-11T21:59:12.484Z,99.90
2018-09-11T22:01:49.171Z,99.90
2018-09-11T22:04:19.854Z,99.90
2018-09-11T22:06:50.252Z,99.90
2018-09-11T22:09:21.185Z,99.90
2018-09-11T22:11:51.143Z,99.90
2018-09-11T22:14:25.935Z,99.90
2018-09-11T22:16:55.980Z,99.90
2018-09-11T22:19:30.355Z,99.90
2018-09-11T22:22:00.838Z,99.90
2018-09-11T22:24:30.300Z,99.90
2018-09-11T22:27:00.692Z,99.90
2018-09-11T22:29:31.911Z,99.90
2018-09-11T22:32:02.590Z,99.90
2018-09-11T22:34:32.869Z,99.90
2018-09-11T22:37:02.461Z,99.90
2018-09-11T22:39:31.913Z,99.90
2018-09-11T22:42:03.142Z,99.90
2018-09-11T22:44:33.612Z,99.90
2018-09-11T22:47:03.911Z,99.90
2018-09-11T22:49:34.857Z,99.90
2018-09-11T22:52:04.964Z,99.90
2018-09-11T22:54:35.367Z,99.90
2018-09-11T22:57:05.942Z,99.90
2018-09-11T22:59:35.312Z,99.90
2018-09-11T23:02:04.773Z,99.90
2018-09-11T23:04:34.160Z,99.90
2018-09-11T23:07:03.996Z,99.90
2018-09-11T23:09:34.052Z,99.90
2018-09-11T23:12:04.397Z,99.90
2018-09-11T23:14:34.782Z,99.90
2018-09-11T23:17:06.236Z,99.90
2018-09-11T23:19:36.683Z,99.90
2018-09-11T23:22:07.615Z,99.90
2018-09-11T23:24:38.400Z,99.90
2018-09-11T23:27:08.112Z,99.90
2018-09-11T23:29:37.034Z,99.90
2018-09-11T23:32:06.673Z,99.90
2018-09-11T23:34:38.313Z,99.90
2018-09-11T23:37:08.761Z,99.90
2018-09-11T23:39:38.270Z,99.90
2018-09-11T23:42:08.431Z,99.90
2018-09-11T23:44:38.884Z,99.90
2018-09-11T23:47:09.610Z,99.90
2018-09-11T23:49:39.015Z,99.90
2018-09-11T23:52:09.397Z,99.90
2018-09-11T23:54:39.698Z,99.90
2018-09-11T23:57:10.060Z,99.90
2018-09-11T23:59:39.773Z,99.90
